createdAt,value
2019-01-12T00:02:08.127Z,8.70
2019-01-12T00:04:51.441Z,7.30
2019-01-12T00:10:14.183Z,7.60
2019-01-12T00:12:45.736Z,7.80
2019-01-12T00:15:32.272Z,7.80
2019-01-12T00:18:03.605Z,7.80
2019-01-12T00:21:22.284Z,7.80
2019-01-12T00:23:54.350Z,7.90
2019-01-12T00:29:27.760Z,9.40
2019-01-12T00:31:57.021Z,7.60
2019-01-12T00:35:02.952Z,7.70
2019-01-12T00:37:40.685Z,7.50
2019-01-12T00:40:13.874Z,7.40
2019-01-12T00:42:44.855Z,7.40
2019-01-12T00:45:17.735Z,7.60
2019-01-12T00:48:11.722Z,7.70
2019-01-12T00:50:49.703Z,7.70
2019-01-12T00:53:17.017Z,7.30
2019-01-12T00:55:48.795Z,7.40
2019-01-12T00:58:20.200Z,7.30
2019-01-12T01:01:24.411Z,7.60
2019-01-12T01:03:56.835Z,7.70
2019-01-12T01:06:30.831Z,7.70
2019-01-12T01:09:52.418Z,7.90
2019-01-12T01:12:27.243Z,6.90
2019-01-12T01:14:59.611Z,7.50
2019-01-12T01:17:38.574Z,7.70
2019-01-12T01:20:10.513Z,7.90
2019-01-12T01:23:22.384Z,8.00
2019-01-12T01:25:53.408Z,8.20
2019-01-12T01:28:29.800Z,7.70
2019-01-12T01:31:02.220Z,7.80
2019-01-12T01:33:33.998Z,7.60
2019-01-12T01:36:42.559Z,7.50
2019-01-12T01:39:15.858Z,7.70
2019-01-12T01:41:46.456Z,7.80
2019-01-12T01:45:11.203Z,7.70
2019-01-12T01:47:45.415Z,7.80
2019-01-12T01:50:17.091Z,7.90
2019-01-12T01:52:59.931Z,7.80
2019-01-12T01:55:30.879Z,7.50
2019-01-12T01:58:36.342Z,7.80
2019-01-12T02:01:10.287Z,8.00
2019-01-12T02:03:40.685Z,8.00
2019-01-12T02:06:14.287Z,7.80
2019-01-12T02:08:45.441Z,8.00
2019-01-12T02:11:15.777Z,8.00
2019-01-12T02:13:54.069Z,8.10
2019-01-12T02:16:28.294Z,8.20
2019-01-12T02:19:01.662Z,8.40
2019-01-12T02:21:31.071Z,7.70
2019-01-12T02:24:05.322Z,7.60
2019-01-12T02:26:40.213Z,7.50
2019-01-12T02:29:12.191Z,7.70
2019-01-12T02:31:45.196Z,7.80
2019-01-12T02:34:16.673Z,7.70
2019-01-12T02:36:46.835Z,8.00
2019-01-12T02:39:20.306Z,8.10
2019-01-12T02:41:54.890Z,8.10
2019-01-12T02:44:28.811Z,8.20
2019-01-12T02:47:00.269Z,8.20
2019-01-12T02:49:36.275Z,8.30
2019-01-12T02:52:07.638Z,8.50
2019-01-12T02:54:44.647Z,8.50
2019-01-12T02:57:15.405Z,8.60
2019-01-12T02:59:49.779Z,8.60
2019-01-12T03:02:21.360Z,8.70
2019-01-12T03:04:55.270Z,8.50
2019-01-12T03:07:26.198Z,8.40
2019-01-12T03:09:58.726Z,8.10
2019-01-12T03:12:38.399Z,7.90
2019-01-12T03:15:12.480Z,8.10
2019-01-12T03:17:45.356Z,8.10
2019-01-12T03:20:18.569Z,8.00
2019-01-12T03:22:51.774Z,8.10
2019-01-12T03:25:25.129Z,8.20
2019-01-12T03:27:59.361Z,8.20
2019-01-12T03:30:35.966Z,7.80
2019-01-12T03:36:10.516Z,8.00
2019-01-12T03:38:44.241Z,7.50
2019-01-12T03:41:18.182Z,7.50
2019-01-12T03:43:58.625Z,7.70
2019-01-12T03:46:32.143Z,7.80
2019-01-12T03:49:05.085Z,7.90
2019-01-12T03:51:39.292Z,7.80
2019-01-12T03:54:12.392Z,7.90
2019-01-12T03:56:44.003Z,7.80
2019-01-12T03:59:22.097Z,7.80
2019-01-12T04:01:55.652Z,7.60
2019-01-12T04:04:29.094Z,7.60
2019-01-12T04:07:00.889Z,7.80
2019-01-12T04:09:42.938Z,7.90
2019-01-12T04:12:16.443Z,7.90
2019-01-12T04:14:48.453Z,8.00
2019-01-12T04:17:20.478Z,8.00
2019-01-12T04:19:52.580Z,8.00
2019-01-12T04:22:26.904Z,7.70
2019-01-12T04:25:01.800Z,7.70
2019-01-12T04:27:44.311Z,7.60
2019-01-12T04:30:19.342Z,7.20
2019-01-12T04:32:52.568Z,6.90
2019-01-12T04:35:28.864Z,7.30
2019-01-12T04:38:02.541Z,7.50
2019-01-12T04:40:35.850Z,7.80
2019-01-12T04:43:11.340Z,7.80
2019-01-12T04:45:43.180Z,7.70
2019-01-12T04:48:15.495Z,7.90
2019-01-12T04:50:53.478Z,7.90
2019-01-12T04:53:25.906Z,7.80
2019-01-12T04:55:58.570Z,7.90
2019-01-12T04:58:30.851Z,8.40
2019-01-12T05:01:08.338Z,8.30
2019-01-12T05:03:40.670Z,8.10
2019-01-12T05:06:13.626Z,8.10
2019-01-12T05:08:56.374Z,7.80
2019-01-12T05:11:30.713Z,7.70
2019-01-12T05:14:03.387Z,8.00
2019-01-12T05:16:39.326Z,7.90
2019-01-12T05:19:12.316Z,7.90
2019-01-12T05:21:44.584Z,8.00
2019-01-12T05:24:22.458Z,8.00
2019-01-12T05:26:56.990Z,7.80
2019-01-12T05:29:28.976Z,7.50
2019-01-12T05:32:01.796Z,7.50
2019-01-12T05:34:34.094Z,7.60
2019-01-12T05:37:10.779Z,7.50
2019-01-12T05:39:43.473Z,7.40
2019-01-12T05:42:21.136Z,8.80
2019-01-12T05:44:55.010Z,6.90
2019-01-12T05:47:29.350Z,7.00
2019-01-12T05:50:02.295Z,7.30
2019-01-12T05:52:38.447Z,7.70
2019-01-12T05:55:13.530Z,7.70
2019-01-12T05:57:49.602Z,7.30
2019-01-12T06:00:25.648Z,7.50
2019-01-12T06:02:58.873Z,7.60
2019-01-12T06:05:30.892Z,7.50
2019-01-12T06:08:03.674Z,7.60
2019-01-12T06:10:37.435Z,7.80
2019-01-12T06:13:14.018Z,9.50
2019-01-12T06:15:47.539Z,7.80
2019-01-12T06:18:24.013Z,7.80
2019-01-12T06:20:56.863Z,7.90
2019-01-12T06:23:32.997Z,7.50
2019-01-12T06:26:05.987Z,7.50
2019-01-12T06:28:42.409Z,7.60
2019-01-12T06:31:14.478Z,7.80
2019-01-12T06:33:48.291Z,7.70
2019-01-12T06:36:25.418Z,9.20
2019-01-12T06:39:00.670Z,7.30
2019-01-12T06:41:36.713Z,7.50
2019-01-12T06:44:09.351Z,7.30
2019-01-12T06:46:46.355Z,7.70
2019-01-12T06:49:21.818Z,7.70
2019-01-12T06:51:54.007Z,7.80
2019-01-12T06:54:30.738Z,7.00
2019-01-12T06:57:09.965Z,7.70
2019-01-12T06:59:41.739Z,7.30
2019-01-12T07:02:17.887Z,7.20
2019-01-12T07:04:55.503Z,7.20
2019-01-12T07:07:27.232Z,7.00
2019-01-12T07:09:59.951Z,7.90
2019-01-12T07:12:32.215Z,7.10
2019-01-12T07:15:06.124Z,7.70
2019-01-12T07:17:37.742Z,7.40
2019-01-12T07:20:15.768Z,7.90
2019-01-12T07:22:48.275Z,8.10
2019-01-12T07:25:22.437Z,8.20
2019-01-12T07:27:58.451Z,8.50
2019-01-12T07:30:32.410Z,8.60
2019-01-12T07:33:08.496Z,8.70
2019-01-12T07:35:36.565Z,8.60
2019-01-12T07:38:13.890Z,8.70
2019-01-12T07:40:45.888Z,8.80
2019-01-12T07:43:17.205Z,8.90
2019-01-12T07:45:52.473Z,8.80
2019-01-12T07:48:24.390Z,8.60
2019-01-12T07:50:55.428Z,8.70
2019-01-12T07:53:28.099Z,8.50
2019-01-12T07:56:02.232Z,8.60
2019-01-12T07:58:34.258Z,8.60
2019-01-12T08:01:06.699Z,8.80
2019-01-12T08:03:40.022Z,8.50
2019-01-12T08:06:15.641Z,8.20
2019-01-12T08:08:47.090Z,8.40
2019-01-12T08:11:19.181Z,10.00
2019-01-12T08:13:52.144Z,7.40
2019-01-12T08:16:26.585Z,7.50
2019-01-12T08:19:00.167Z,7.50
2019-01-12T08:21:34.655Z,7.70
2019-01-12T08:24:06.107Z,7.90
2019-01-12T08:26:44.805Z,7.40
2019-01-12T08:29:18.128Z,7.80
2019-01-12T08:31:53.050Z,8.00
2019-01-12T08:34:28.884Z,9.60
2019-01-12T08:37:00.120Z,7.50
2019-01-12T08:39:42.544Z,7.70
2019-01-12T08:42:10.271Z,8.00
2019-01-12T08:44:42.688Z,7.90
2019-01-12T08:47:20.221Z,7.90
2019-01-12T08:49:52.917Z,7.90
2019-01-12T08:52:29.548Z,7.70
2019-01-12T08:55:00.933Z,7.90
2019-01-12T08:57:32.842Z,7.60
2019-01-12T09:00:08.475Z,7.30
2019-01-12T09:02:48.037Z,7.40
2019-01-12T09:05:23.191Z,7.70
2019-01-12T09:07:57.823Z,7.40
2019-01-12T09:10:33.203Z,7.50
2019-01-12T09:13:08.632Z,7.80
2019-01-12T09:15:42.003Z,7.90
2019-01-12T09:18:12.718Z,8.00
2019-01-12T09:20:42.351Z,8.40
2019-01-12T09:23:17.678Z,8.50
2019-01-12T09:25:53.273Z,8.60
2019-01-12T09:28:27.746Z,8.60
2019-01-12T09:30:59.356Z,7.70
2019-01-12T09:33:29.693Z,7.40
2019-01-12T09:36:02.535Z,8.10
2019-01-12T09:38:35.500Z,8.30
2019-01-12T09:41:10.102Z,8.10
2019-01-12T09:43:40.716Z,8.30
2019-01-12T09:46:13.490Z,9.00
2019-01-12T09:48:49.611Z,8.90
2019-01-12T09:51:21.857Z,9.10
2019-01-12T09:53:53.438Z,9.30
2019-01-12T09:56:29.897Z,9.00
2019-01-12T09:59:02.226Z,8.00
2019-01-12T10:01:34.843Z,8.60
2019-01-12T10:04:09.958Z,8.80
2019-01-12T10:06:40.006Z,9.00
2019-01-12T10:09:12.252Z,9.10
2019-01-12T10:11:49.212Z,8.90
2019-01-12T10:14:25.019Z,9.10
2019-01-12T10:16:54.934Z,9.00
2019-01-12T10:19:26.963Z,9.20
2019-01-12T10:22:00.677Z,9.40
2019-01-12T10:24:34.251Z,9.60
2019-01-12T10:27:09.192Z,9.50
2019-01-12T10:29:43.251Z,9.40
2019-01-12T10:32:18.653Z,9.30
2019-01-12T10:34:52.772Z,9.40
2019-01-12T10:37:36.171Z,9.30
2019-01-12T10:40:14.397Z,9.20
2019-01-12T10:42:48.444Z,9.20
2019-01-12T10:45:20.974Z,9.10
2019-01-12T10:47:51.286Z,8.90
2019-01-12T10:50:28.031Z,8.60
2019-01-12T10:55:51.898Z,8.70
2019-01-12T10:58:27.717Z,8.90
2019-01-12T11:01:04.123Z,9.00
2019-01-12T11:03:39.375Z,9.20
2019-01-12T11:06:15.044Z,9.00
2019-01-12T11:08:46.276Z,9.20
2019-01-12T11:11:19.391Z,9.40
2019-01-12T11:14:02.946Z,9.50
2019-01-12T11:16:34.537Z,9.00
2019-01-12T11:19:09.288Z,8.90
2019-01-12T11:21:42.304Z,9.20
2019-01-12T11:24:14.212Z,9.40
2019-01-12T11:26:43.383Z,9.20
2019-01-12T11:29:18.518Z,9.40
2019-01-12T11:31:53.732Z,9.50
2019-01-12T11:34:27.723Z,9.40
2019-01-12T11:37:03.839Z,9.20
2019-01-12T11:39:38.585Z,9.10
2019-01-12T11:42:10.961Z,8.20
2019-01-12T11:44:43.484Z,9.10
2019-01-12T11:47:20.102Z,8.90
2019-01-12T11:49:57.812Z,8.40
2019-01-12T11:52:30.459Z,8.10
2019-01-12T11:55:02.752Z,8.40
2019-01-12T11:57:35.054Z,8.40
2019-01-12T12:00:11.457Z,8.50
2019-01-12T12:02:44.713Z,8.60
2019-01-12T12:05:17.337Z,8.80
2019-01-12T12:07:52.959Z,9.50
2019-01-12T12:10:28.994Z,8.80
2019-01-12T12:13:00.687Z,8.70
2019-01-12T12:15:31.775Z,8.80
2019-01-12T12:18:03.102Z,8.90
2019-01-12T12:20:36.007Z,8.90
2019-01-12T12:23:07.292Z,9.20
2019-01-12T12:25:46.733Z,9.30
2019-01-12T12:28:21.686Z,9.40
2019-01-12T12:30:52.814Z,9.20
2019-01-12T12:33:26.640Z,9.30
2019-01-12T12:35:58.390Z,8.90
2019-01-12T12:38:35.380Z,8.70
2019-01-12T12:41:12.837Z,8.50
2019-01-12T12:43:48.902Z,8.60
2019-01-12T12:46:25.596Z,8.70
2019-01-12T12:48:57.873Z,8.80
2019-01-12T12:51:34.195Z,8.70
2019-01-12T12:54:06.819Z,8.40
2019-01-12T12:56:37.351Z,8.70
2019-01-12T12:59:09.772Z,8.80
2019-01-12T13:01:42.824Z,8.60
2019-01-12T13:04:13.905Z,8.60
2019-01-12T13:06:47.748Z,10.10
2019-01-12T13:09:18.359Z,8.50
2019-01-12T13:11:51.552Z,8.40
2019-01-12T13:14:28.088Z,8.30
2019-01-12T13:16:58.758Z,8.40
2019-01-12T13:19:33.130Z,9.60
2019-01-12T13:22:03.423Z,8.40
2019-01-12T13:24:36.322Z,8.70
2019-01-12T13:27:12.222Z,8.40
2019-01-12T13:29:58.482Z,8.60
2019-01-12T13:32:29.475Z,8.40
2019-01-12T13:35:00.670Z,8.50
2019-01-12T13:37:31.485Z,8.80
2019-01-12T13:40:05.088Z,8.60
2019-01-12T13:42:40.523Z,8.50
2019-01-12T13:45:14.763Z,8.50
2019-01-12T13:47:51.569Z,8.70
2019-01-12T13:50:25.266Z,8.80
2019-01-12T13:53:00.557Z,8.40
2019-01-12T13:55:32.682Z,8.40
2019-01-12T13:58:15.031Z,8.20
2019-01-12T14:00:46.842Z,7.40
2019-01-12T14:03:17.431Z,9.80
2019-01-12T14:05:55.298Z,8.30
2019-01-12T14:08:22.001Z,8.40
2019-01-12T14:10:54.628Z,8.40
2019-01-12T14:13:29.040Z,8.60
2019-01-12T14:16:04.513Z,8.80
2019-01-12T14:18:38.774Z,8.50
2019-01-12T14:21:12.239Z,9.60
2019-01-12T14:23:44.667Z,8.30
2019-01-12T14:26:15.947Z,8.50
2019-01-12T14:28:49.519Z,8.60
2019-01-12T14:31:27.629Z,8.80
2019-01-12T14:34:09.097Z,9.00
2019-01-12T14:36:42.824Z,9.00
2019-01-12T14:39:14.029Z,9.00
2019-01-12T14:41:46.068Z,8.90
2019-01-12T14:44:18.876Z,9.00
2019-01-12T14:46:51.462Z,8.80
2019-01-12T14:49:22.962Z,8.80
2019-01-12T14:51:56.866Z,8.80
2019-01-12T14:54:35.534Z,8.70
2019-01-12T14:57:17.885Z,8.40
2019-01-12T14:59:48.893Z,8.40
2019-01-12T15:02:18.601Z,8.30
2019-01-12T15:04:49.340Z,7.70
2019-01-12T15:07:35.567Z,8.30
2019-01-12T15:10:13.188Z,8.50
2019-01-12T15:12:57.240Z,8.60
2019-01-12T15:15:30.315Z,8.60
2019-01-12T15:18:02.834Z,8.40
2019-01-12T15:20:32.486Z,8.50
2019-01-12T15:23:07.796Z,8.60
2019-01-12T15:25:37.092Z,8.70
2019-01-12T15:28:09.456Z,8.80
2019-01-12T15:30:40.721Z,8.60
2019-01-12T15:33:16.907Z,8.80
2019-01-12T15:35:51.475Z,8.70
2019-01-12T15:38:34.207Z,8.80
2019-01-12T15:40:58.128Z,8.70
2019-01-12T15:43:27.912Z,9.00
2019-01-12T15:45:57.572Z,9.00
2019-01-12T15:49:03.606Z,8.90
2019-01-12T15:51:39.039Z,8.70
2019-01-12T15:54:08.046Z,8.10
2019-01-12T15:57:16.685Z,9.00
2019-01-12T15:59:54.476Z,8.80
2019-01-12T16:02:23.488Z,8.80
2019-01-12T16:04:52.874Z,8.70
2019-01-12T16:07:23.497Z,8.70
2019-01-12T16:10:36.697Z,8.60
2019-01-12T16:13:07.568Z,8.60
2019-01-12T16:15:38.878Z,8.70
2019-01-12T16:18:38.138Z,9.10
2019-01-12T16:21:12.655Z,9.20
2019-01-12T16:23:44.468Z,8.80
2019-01-12T16:26:21.561Z,10.60
2019-01-12T16:28:53.397Z,8.90
2019-01-12T16:32:11.677Z,8.70
2019-01-12T16:34:40.627Z,8.50
2019-01-12T16:37:10.885Z,8.40
2019-01-12T16:40:16.646Z,8.40
2019-01-12T16:42:47.561Z,8.40
2019-01-12T16:46:09.851Z,8.80
2019-01-12T16:48:47.974Z,7.40
2019-01-12T16:54:04.375Z,8.80
2019-01-12T16:56:35.700Z,8.90
2019-01-12T16:59:05.347Z,8.50
2019-01-12T17:01:37.329Z,9.60
2019-01-12T17:04:57.470Z,8.80
2019-01-12T17:07:32.631Z,8.70
2019-01-12T17:10:03.315Z,9.50
2019-01-12T17:13:12.677Z,8.30
2019-01-12T17:15:45.231Z,8.10
2019-01-12T17:18:15.570Z,8.00
2019-01-12T17:20:53.509Z,8.20
2019-01-12T17:23:25.080Z,8.40
2019-01-12T17:26:26.876Z,8.40
2019-01-12T17:28:55.925Z,8.80
2019-01-12T17:31:27.791Z,8.60
2019-01-12T17:34:24.132Z,8.60
2019-01-12T17:36:58.799Z,8.50
2019-01-12T17:42:20.409Z,8.70
2019-01-12T17:44:49.604Z,8.90
2019-01-12T17:47:18.943Z,9.10
2019-01-12T17:49:47.840Z,9.30
2019-01-12T17:52:17.811Z,9.20
2019-01-12T17:55:32.713Z,9.20
2019-01-12T17:58:04.912Z,9.20
2019-01-12T18:03:28.995Z,9.20
2019-01-12T18:05:58.407Z,9.40
2019-01-12T18:08:33.926Z,9.40
2019-01-12T18:11:02.814Z,9.60
2019-01-12T18:14:04.578Z,9.20
2019-01-12T18:16:33.492Z,9.30
2019-01-12T18:19:06.194Z,9.20
2019-01-12T18:22:26.229Z,8.90
2019-01-12T18:24:55.081Z,8.80
2019-01-12T18:27:24.024Z,9.00
2019-01-12T18:29:59.920Z,9.10
2019-01-12T18:32:34.853Z,9.00
2019-01-12T18:35:57.132Z,9.00
2019-01-12T18:38:29.569Z,9.00
2019-01-12T18:40:58.595Z,9.00
2019-01-12T18:44:08.381Z,8.70
2019-01-12T18:46:42.774Z,8.80
2019-01-12T18:49:15.379Z,8.90
2019-01-12T18:51:54.099Z,8.60
2019-01-12T18:54:32.992Z,8.50
2019-01-12T18:58:01.417Z,8.80
2019-01-12T19:00:32.157Z,8.90
2019-01-12T19:05:57.834Z,8.80
2019-01-12T19:11:02.528Z,8.60
2019-01-12T19:13:43.681Z,8.80
2019-01-12T19:19:59.971Z,8.80
2019-01-12T19:22:33.994Z,8.50
2019-01-12T19:25:12.488Z,8.40
2019-01-12T19:27:48.736Z,8.50
2019-01-12T19:31:13.470Z,8.60
2019-01-12T19:33:49.336Z,8.90
2019-01-12T19:39:18.614Z,9.40
2019-01-12T19:44:42.484Z,8.90
2019-01-12T19:47:14.459Z,8.90
2019-01-12T19:50:24.523Z,8.70
2019-01-12T19:53:07.648Z,8.30
2019-01-12T19:58:32.003Z,8.30
2019-01-12T20:01:54.197Z,8.50
2019-01-12T20:04:26.486Z,8.50
2019-01-12T20:06:59.405Z,8.50
2019-01-12T20:09:39.767Z,8.60
2019-01-12T20:12:10.416Z,8.40
2019-01-12T20:15:33.419Z,9.90
2019-01-12T20:18:04.594Z,7.80
2019-01-12T20:20:34.482Z,7.90
2019-01-12T20:23:30.329Z,8.20
2019-01-12T20:26:09.312Z,8.50
2019-01-12T20:28:40.343Z,8.50
2019-01-12T20:31:48.129Z,8.50
2019-01-12T20:34:27.808Z,8.80
2019-01-12T20:37:42.016Z,8.50
2019-01-12T20:40:25.438Z,8.60
2019-01-12T20:43:08.995Z,8.90
2019-01-12T20:45:47.115Z,9.00
2019-01-12T20:49:20.305Z,8.70
2019-01-12T20:52:02.488Z,8.80
2019-01-12T20:57:48.084Z,8.50
2019-01-12T21:00:44.398Z,8.70
2019-01-12T21:03:43.933Z,8.80
2019-01-12T21:07:06.355Z,9.00
2019-01-12T21:10:09.266Z,8.80
2019-01-12T21:13:34.950Z,8.80
2019-01-12T21:16:12.978Z,8.70
2019-01-12T21:18:46.050Z,8.50
2019-01-12T21:21:24.982Z,8.50
2019-01-12T21:23:58.362Z,8.30
2019-01-12T21:26:48.839Z,8.10
2019-01-12T21:29:25.766Z,8.40
2019-01-12T21:31:59.599Z,8.60
2019-01-12T21:34:32.327Z,8.60
2019-01-12T21:37:12.021Z,8.40
2019-01-12T21:40:08.451Z,8.50
2019-01-12T21:42:44.902Z,8.70
2019-01-12T21:45:18.982Z,8.80
2019-01-12T21:47:59.540Z,8.50
2019-01-12T21:50:36.975Z,9.20
2019-01-12T21:53:11.197Z,8.00
2019-01-12T21:55:44.277Z,8.50
2019-01-12T21:58:16.320Z,8.60
2019-01-12T22:01:13.361Z,8.80
2019-01-12T22:03:50.067Z,8.60
2019-01-12T22:06:20.404Z,8.40
2019-01-12T22:09:16.617Z,8.60
2019-01-12T22:11:49.236Z,8.70
2019-01-12T22:14:19.405Z,7.80
2019-01-12T22:16:56.577Z,9.00
2019-01-12T22:19:30.812Z,8.90
2019-01-12T22:22:00.031Z,8.80
2019-01-12T22:24:41.944Z,8.50
2019-01-12T22:27:10.819Z,8.40
2019-01-12T22:30:28.659Z,8.00
2019-01-12T22:32:59.389Z,8.20
2019-01-12T22:38:09.372Z,8.70
2019-01-12T22:40:49.410Z,8.90
2019-01-12T22:43:20.892Z,9.10
2019-01-12T22:45:57.473Z,9.10
2019-01-12T22:48:27.499Z,8.80
2019-01-12T22:51:35.389Z,8.70
2019-01-12T22:54:08.551Z,8.70
2019-01-12T22:56:38.294Z,8.80
2019-01-12T22:59:56.816Z,8.10
2019-01-12T23:02:22.799Z,7.60
2019-01-12T23:04:55.290Z,6.80
2019-01-12T23:07:30.525Z,8.40
2019-01-12T23:10:02.921Z,8.50
2019-01-12T23:15:29.365Z,8.60
2019-01-12T23:18:02.804Z,8.60
2019-01-12T23:20:34.740Z,10.00
2019-01-12T23:23:07.502Z,9.00
2019-01-12T23:25:41.528Z,9.00
2019-01-12T23:28:17.232Z,9.20
2019-01-12T23:30:50.354Z,9.10
2019-01-12T23:34:16.240Z,9.10
2019-01-12T23:36:50.106Z,8.80
2019-01-12T23:39:22.695Z,8.90
2019-01-12T23:42:41.170Z,8.70
2019-01-12T23:45:16.176Z,8.80
2019-01-12T23:47:47.405Z,8.90
2019-01-12T23:50:32.062Z,8.60
2019-01-12T23:53:02.884Z,8.60
